createdAt,value
2023-02-18T00:01:58.869Z,10.80
2023-02-18T00:04:25.609Z,9.80
2023-02-18T00:06:52.327Z,9.70
2023-02-18T00:09:19.049Z,9.70
2023-02-18T00:11:45.715Z,9.70
2023-02-18T00:14:13.488Z,9.80
2023-02-18T00:16:40.603Z,9.70
2023-02-18T00:19:08.077Z,9.70
2023-02-18T00:21:35.551Z,11.40
2023-02-18T00:24:02.707Z,9.70
2023-02-18T00:26:29.526Z,9.70
2023-02-18T00:28:56.272Z,9.70
2023-02-18T00:31:27.300Z,9.70
2023-02-18T00:33:54.309Z,9.70
2023-02-18T00:36:21.708Z,9.70
2023-02-18T00:38:50.497Z,11.20
2023-02-18T00:41:17.239Z,9.70
2023-02-18T00:43:44.131Z,9.70
2023-02-18T00:46:11.590Z,9.70
2023-02-18T00:48:38.489Z,9.70
2023-02-18T00:51:06.357Z,9.70
2023-02-18T00:53:33.221Z,9.70
2023-02-18T00:55:59.928Z,9.70
2023-02-18T00:58:26.836Z,9.70
2023-02-18T01:00:54.127Z,9.70
2023-02-18T01:03:22.404Z,9.70
2023-02-18T01:05:50.395Z,9.70
2023-02-18T01:08:17.730Z,9.70
2023-02-18T01:10:45.654Z,9.60
2023-02-18T01:13:13.086Z,9.60
2023-02-18T01:15:40.921Z,11.20
2023-02-18T01:18:08.176Z,9.50
2023-02-18T01:20:35.247Z,9.60
2023-02-18T01:23:02.171Z,9.50
2023-02-18T01:25:28.968Z,9.50
2023-02-18T01:27:56.064Z,9.50
2023-02-18T01:30:22.977Z,9.50
2023-02-18T01:32:49.640Z,9.40
2023-02-18T01:35:18.441Z,9.50
2023-02-18T01:37:45.548Z,9.40
2023-02-18T01:40:12.846Z,9.40
2023-02-18T01:42:40.242Z,9.40
2023-02-18T01:45:45.223Z,9.40
2023-02-18T01:48:17.896Z,9.30
2023-02-18T01:50:47.567Z,9.30
2023-02-18T01:53:16.928Z,9.40
2023-02-18T01:55:44.259Z,9.40
2023-02-18T01:58:12.360Z,9.30
2023-02-18T02:00:39.096Z,9.30
2023-02-18T02:03:05.811Z,9.30
2023-02-18T02:05:34.081Z,9.30
2023-02-18T02:08:01.347Z,9.40
2023-02-18T02:10:31.555Z,9.30
2023-02-18T02:13:10.408Z,9.30
2023-02-18T02:15:40.021Z,9.30
2023-02-18T02:18:09.714Z,9.30
2023-02-18T02:20:45.475Z,9.30
2023-02-18T02:23:30.517Z,9.50
2023-02-18T02:26:15.903Z,9.30
2023-02-18T02:28:51.682Z,9.30
2023-02-18T02:31:37.029Z,9.30
2023-02-18T02:34:21.291Z,9.40
2023-02-18T02:36:53.649Z,9.40
2023-02-18T02:39:20.630Z,9.50
2023-02-18T02:41:50.341Z,9.50
2023-02-18T02:44:27.896Z,9.50
2023-02-18T02:46:58.644Z,9.50
2023-02-18T02:49:25.283Z,9.50
2023-02-18T02:51:58.066Z,9.50
2023-02-18T02:54:26.509Z,9.40
2023-02-18T02:57:28.508Z,9.40
2023-02-18T02:59:58.183Z,9.40
2023-02-18T03:02:27.925Z,9.40
2023-02-18T03:04:59.901Z,9.40
2023-02-18T03:07:26.667Z,9.40
2023-02-18T03:10:17.133Z,9.40
2023-02-18T03:12:58.198Z,9.40
2023-02-18T03:15:32.222Z,9.40
2023-02-18T03:18:02.466Z,9.40
2023-02-18T03:20:35.314Z,9.40
2023-02-18T03:23:04.513Z,9.40
2023-02-18T03:25:32.075Z,9.50
2023-02-18T03:28:04.558Z,9.40
2023-02-18T03:30:49.099Z,9.50
2023-02-18T03:33:17.878Z,9.40
2023-02-18T03:35:45.131Z,9.40
2023-02-18T03:38:11.769Z,9.40
2023-02-18T03:40:38.485Z,9.30
2023-02-18T03:43:05.144Z,9.20
2023-02-18T03:45:31.798Z,9.10
2023-02-18T03:47:58.433Z,9.10
2023-02-18T03:50:25.184Z,9.00
2023-02-18T03:52:52.016Z,9.00
2023-02-18T03:55:18.859Z,8.90
2023-02-18T03:57:45.452Z,8.80
2023-02-18T04:00:12.641Z,8.80
2023-02-18T04:02:39.418Z,8.70
2023-02-18T04:05:07.138Z,8.70
2023-02-18T04:07:34.232Z,8.60
2023-02-18T04:10:00.856Z,8.60
2023-02-18T04:12:27.473Z,9.60
2023-02-18T04:14:54.179Z,11.40
2023-02-18T04:17:20.851Z,8.50
2023-02-18T04:19:47.465Z,8.50
2023-02-18T04:22:14.330Z,8.50
2023-02-18T04:24:41.022Z,8.50
2023-02-18T04:27:07.681Z,8.40
2023-02-18T04:29:34.665Z,8.40
2023-02-18T04:32:01.338Z,10.00
2023-02-18T04:34:28.010Z,8.30
2023-02-18T04:36:54.649Z,8.30
2023-02-18T04:39:21.262Z,8.40
2023-02-18T04:41:47.859Z,8.30
2023-02-18T04:44:14.474Z,8.40
2023-02-18T04:46:41.151Z,8.40
2023-02-18T04:49:07.747Z,8.50
2023-02-18T04:51:34.427Z,9.50
2023-02-18T04:54:01.042Z,8.50
2023-02-18T04:56:27.729Z,8.50
2023-02-18T04:58:54.330Z,8.50
2023-02-18T05:01:21.079Z,8.50
2023-02-18T05:03:47.964Z,8.50
2023-02-18T05:06:14.725Z,8.50
2023-02-18T05:08:41.395Z,8.50
2023-02-18T05:11:08.649Z,8.50
2023-02-18T05:13:35.359Z,8.60
2023-02-18T05:16:02.150Z,8.60
2023-02-18T05:18:28.945Z,8.50
2023-02-18T05:20:55.702Z,8.50
2023-02-18T05:23:22.430Z,8.50
2023-02-18T05:25:49.087Z,8.50
2023-02-18T05:28:15.745Z,8.40
2023-02-18T05:30:42.458Z,8.50
2023-02-18T05:33:09.104Z,8.40
2023-02-18T05:35:35.744Z,8.20
2023-02-18T05:38:02.476Z,8.40
2023-02-18T05:40:29.142Z,8.40
2023-02-18T05:42:55.786Z,8.40
2023-02-18T05:45:22.590Z,8.40
2023-02-18T05:47:49.329Z,8.30
2023-02-18T05:50:16.004Z,8.40
2023-02-18T05:52:42.661Z,9.30
2023-02-18T05:55:09.353Z,8.40
2023-02-18T05:57:36.020Z,10.00
2023-02-18T06:00:02.753Z,8.40
2023-02-18T06:02:29.507Z,8.40
2023-02-18T06:04:56.209Z,8.40
2023-02-18T06:07:22.927Z,8.50
2023-02-18T06:09:49.516Z,10.20
2023-02-18T06:12:16.131Z,9.00
2023-02-18T06:14:42.967Z,8.50
2023-02-18T06:17:09.866Z,8.50
2023-02-18T06:19:36.552Z,10.70
2023-02-18T06:22:03.700Z,8.60
2023-02-18T06:24:30.447Z,8.70
2023-02-18T06:26:57.357Z,8.70
2023-02-18T06:29:23.957Z,8.70
2023-02-18T06:31:50.758Z,8.80
2023-02-18T06:34:17.559Z,8.80
2023-02-18T06:36:44.177Z,8.80
2023-02-18T06:39:10.783Z,9.00
2023-02-18T06:41:37.435Z,8.90
2023-02-18T06:44:04.102Z,9.00
2023-02-18T06:46:30.809Z,9.00
2023-02-18T06:48:57.489Z,9.10
2023-02-18T06:51:24.289Z,10.20
2023-02-18T06:53:50.949Z,9.20
2023-02-18T06:56:17.967Z,9.10
2023-02-18T06:58:44.610Z,9.20
2023-02-18T07:01:11.347Z,9.30
2023-02-18T07:03:37.981Z,9.30
2023-02-18T07:06:04.743Z,9.30
2023-02-18T07:08:33.063Z,9.30
2023-02-18T07:10:59.746Z,9.40
2023-02-18T07:13:26.414Z,9.50
2023-02-18T07:15:52.996Z,9.50
2023-02-18T07:18:19.604Z,9.60
2023-02-18T07:20:46.433Z,12.40
2023-02-18T07:23:13.104Z,9.60
2023-02-18T07:25:39.735Z,9.70
2023-02-18T07:28:06.390Z,9.70
2023-02-18T07:30:33.126Z,9.80
2023-02-18T07:32:59.844Z,9.70
2023-02-18T07:35:26.485Z,9.70
2023-02-18T07:37:53.095Z,9.70
2023-02-18T07:40:21.520Z,9.80
2023-02-18T07:42:48.460Z,9.80
2023-02-18T07:45:15.492Z,9.80
2023-02-18T07:47:42.595Z,9.80
2023-02-18T07:50:09.913Z,9.90
2023-02-18T07:52:36.479Z,9.90
2023-02-18T07:55:03.196Z,12.40
2023-02-18T07:57:29.828Z,10.00
2023-02-18T07:59:56.397Z,11.70
2023-02-18T08:02:23.768Z,10.00
2023-02-18T08:04:50.502Z,10.00
2023-02-18T08:07:18.257Z,9.90
2023-02-18T08:09:44.858Z,10.00
2023-02-18T08:12:11.507Z,12.20
2023-02-18T08:14:38.221Z,10.60
2023-02-18T08:17:04.854Z,10.00
2023-02-18T08:19:31.464Z,10.00
2023-02-18T08:22:00.932Z,10.00
2023-02-18T08:24:27.518Z,10.10
2023-02-18T08:27:00.860Z,12.50
2023-02-18T08:29:28.370Z,11.50
2023-02-18T08:31:57.271Z,10.10
2023-02-18T08:34:23.961Z,12.70
2023-02-18T08:36:50.562Z,10.10
2023-02-18T08:39:17.142Z,10.20
2023-02-18T08:41:43.958Z,10.20
2023-02-18T08:44:10.583Z,10.30
2023-02-18T08:46:37.270Z,10.30
2023-02-18T08:49:04.654Z,10.40
2023-02-18T08:51:31.607Z,13.40
2023-02-18T08:53:58.500Z,10.40
2023-02-18T08:56:25.064Z,10.50
2023-02-18T08:58:51.754Z,10.50
2023-02-18T09:01:18.393Z,12.70
2023-02-18T09:03:45.030Z,10.60
2023-02-18T09:06:11.638Z,10.70
2023-02-18T09:08:38.282Z,10.70
2023-02-18T09:11:05.019Z,13.10
2023-02-18T09:13:32.890Z,10.60
2023-02-18T09:16:04.343Z,12.80
2023-02-18T09:18:31.427Z,10.70
2023-02-18T09:20:58.805Z,11.60
2023-02-18T09:23:29.289Z,10.90
2023-02-18T09:25:56.310Z,11.00
2023-02-18T09:28:23.340Z,13.50
2023-02-18T09:30:49.971Z,11.10
2023-02-18T09:33:16.859Z,11.20
2023-02-18T09:35:44.335Z,12.50
2023-02-18T09:38:11.825Z,11.30
2023-02-18T09:40:40.164Z,12.50
2023-02-18T09:43:06.845Z,11.40
2023-02-18T09:45:33.706Z,11.40
2023-02-18T09:48:01.294Z,12.50
2023-02-18T09:50:30.208Z,14.60
2023-02-18T09:52:58.966Z,14.30
2023-02-18T09:55:33.694Z,14.20
2023-02-18T09:58:05.161Z,11.50
2023-02-18T10:00:36.420Z,13.10
2023-02-18T10:03:06.098Z,13.40
2023-02-18T10:05:33.457Z,11.70
2023-02-18T10:08:02.082Z,11.80
2023-02-18T10:10:33.356Z,11.80
2023-02-18T10:13:01.781Z,11.80
2023-02-18T10:15:29.897Z,11.80
2023-02-18T10:17:57.852Z,11.80
2023-02-18T10:20:26.551Z,11.70
2023-02-18T10:22:54.240Z,11.70
2023-02-18T10:25:22.520Z,13.10
2023-02-18T10:27:50.726Z,11.60
2023-02-18T10:30:27.531Z,11.60
2023-02-18T10:33:08.137Z,11.60
2023-02-18T10:35:37.496Z,11.60
2023-02-18T10:38:18.418Z,11.60
2023-02-18T10:41:00.479Z,11.50
2023-02-18T10:43:38.548Z,11.50
2023-02-18T10:46:15.570Z,11.50
2023-02-18T10:48:59.821Z,11.60
2023-02-18T10:51:29.313Z,11.60
2023-02-18T10:53:56.080Z,11.60
2023-02-18T10:56:31.601Z,11.60
2023-02-18T10:59:10.841Z,11.60
2023-02-18T11:01:37.781Z,11.60
2023-02-18T11:04:12.475Z,12.10
2023-02-18T11:06:40.945Z,11.70
2023-02-18T11:09:09.645Z,11.70
2023-02-18T11:11:39.643Z,14.00
2023-02-18T11:14:07.253Z,11.80
2023-02-18T11:16:41.320Z,11.80
2023-02-18T11:19:26.766Z,11.80
2023-02-18T11:22:06.082Z,11.90
2023-02-18T11:24:32.614Z,12.00
2023-02-18T11:26:59.228Z,13.20
2023-02-18T11:29:28.899Z,12.00
2023-02-18T11:31:56.869Z,14.70
2023-02-18T11:34:26.353Z,11.90
2023-02-18T11:36:53.188Z,13.20
2023-02-18T11:39:22.095Z,12.00
2023-02-18T11:41:54.108Z,14.60
2023-02-18T11:44:27.860Z,14.40
2023-02-18T11:46:57.631Z,12.10
2023-02-18T11:49:24.774Z,12.20
2023-02-18T11:51:51.883Z,12.10
2023-02-18T11:54:18.453Z,12.10
2023-02-18T11:56:54.582Z,12.10
2023-02-18T11:59:22.146Z,12.10
2023-02-18T12:01:55.010Z,12.00
2023-02-18T12:04:26.718Z,12.00
2023-02-18T12:07:30.190Z,13.90
2023-02-18T12:09:59.113Z,11.90
2023-02-18T12:12:31.021Z,12.00
2023-02-18T12:14:58.797Z,12.00
2023-02-18T12:17:37.685Z,12.00
2023-02-18T12:20:07.895Z,12.00
2023-02-18T12:22:34.435Z,12.00
2023-02-18T12:25:13.677Z,12.00
2023-02-18T12:27:48.019Z,12.10
2023-02-18T12:30:14.686Z,12.20
2023-02-18T12:32:44.328Z,12.30
2023-02-18T12:35:20.341Z,12.30
2023-02-18T12:37:56.961Z,12.30
2023-02-18T12:40:35.942Z,12.30
2023-02-18T12:43:21.372Z,12.40
2023-02-18T12:45:51.224Z,12.40
2023-02-18T12:48:40.991Z,12.50
2023-02-18T12:51:26.219Z,12.50
2023-02-18T12:54:18.857Z,12.50
2023-02-18T12:56:51.020Z,12.50
2023-02-18T12:59:35.743Z,13.80
2023-02-18T13:02:08.418Z,12.40
2023-02-18T13:04:43.914Z,12.40
2023-02-18T13:07:23.873Z,12.30
2023-02-18T13:09:59.649Z,12.40
2023-02-18T13:12:40.189Z,12.40
2023-02-18T13:15:27.037Z,12.40
2023-02-18T13:17:56.818Z,12.50
2023-02-18T13:20:34.657Z,13.80
2023-02-18T13:23:01.861Z,12.50
2023-02-18T13:25:28.786Z,12.60
2023-02-18T13:28:09.954Z,14.50
2023-02-18T13:30:43.366Z,12.60
2023-02-18T13:33:14.282Z,15.10
2023-02-18T13:35:59.699Z,12.60
2023-02-18T13:38:45.191Z,12.60
2023-02-18T13:41:11.871Z,12.60
2023-02-18T13:43:39.773Z,12.70
2023-02-18T13:46:11.051Z,12.60
2023-02-18T13:48:40.705Z,12.50
2023-02-18T13:51:08.297Z,12.60
2023-02-18T13:53:37.108Z,12.60
2023-02-18T13:56:11.394Z,12.60
2023-02-18T13:58:37.925Z,12.60
2023-02-18T14:01:06.914Z,12.70
2023-02-18T14:03:39.154Z,12.60
2023-02-18T14:06:32.230Z,13.30
2023-02-18T14:09:04.575Z,12.60
2023-02-18T14:11:33.047Z,12.60
2023-02-18T14:13:59.636Z,15.30
2023-02-18T14:16:26.314Z,12.60
2023-02-18T14:18:58.281Z,13.30
2023-02-18T14:21:43.519Z,12.50
2023-02-18T14:24:10.992Z,12.50
2023-02-18T14:26:40.158Z,12.50
2023-02-18T14:29:10.869Z,15.50
2023-02-18T14:31:37.626Z,13.20
2023-02-18T14:34:23.097Z,14.90
2023-02-18T14:36:58.954Z,12.40
2023-02-18T14:39:43.617Z,12.30
2023-02-18T14:42:10.234Z,12.30
2023-02-18T14:44:49.388Z,12.20
2023-02-18T14:47:35.088Z,12.20
2023-02-18T14:50:03.812Z,12.10
2023-02-18T14:52:39.656Z,12.70
2023-02-18T14:55:07.863Z,12.10
2023-02-18T14:57:40.836Z,12.10
2023-02-18T15:00:14.054Z,12.20
2023-02-18T15:02:40.622Z,12.20
2023-02-18T15:05:18.131Z,12.30
2023-02-18T15:08:01.008Z,12.20
2023-02-18T15:10:37.828Z,12.20
2023-02-18T15:13:05.531Z,12.10
2023-02-18T15:15:33.022Z,12.10
2023-02-18T15:17:59.683Z,12.10
2023-02-18T15:20:27.148Z,12.10
2023-02-18T15:22:54.922Z,12.00
2023-02-18T15:25:21.592Z,15.10
2023-02-18T15:27:51.511Z,12.00
2023-02-18T15:30:18.094Z,12.00
2023-02-18T15:32:52.199Z,14.00
2023-02-18T15:35:20.010Z,11.90
2023-02-18T15:37:51.780Z,11.90
2023-02-18T15:40:18.760Z,11.90
2023-02-18T15:42:52.830Z,14.00
2023-02-18T15:45:21.051Z,11.80
2023-02-18T15:47:49.046Z,11.80
2023-02-18T15:50:21.163Z,12.80
2023-02-18T15:52:48.549Z,12.70
2023-02-18T15:55:19.129Z,12.90
2023-02-18T15:57:45.722Z,11.70
2023-02-18T16:00:14.629Z,11.60
2023-02-18T16:02:55.421Z,11.60
2023-02-18T16:07:59.117Z,11.80
2023-02-18T16:10:39.003Z,11.50
2023-02-18T16:13:06.130Z,11.40
2023-02-18T16:15:37.255Z,11.40
2023-02-18T16:18:04.453Z,11.30
2023-02-18T16:20:32.496Z,11.20
2023-02-18T16:23:00.467Z,11.20
2023-02-18T16:25:40.051Z,11.20
2023-02-18T16:28:16.177Z,11.10
2023-02-18T16:30:45.284Z,11.10
2023-02-18T16:33:12.359Z,11.10
2023-02-18T16:35:49.546Z,11.10
2023-02-18T16:38:21.086Z,11.00
2023-02-18T16:40:47.972Z,11.00
2023-02-18T16:43:16.166Z,11.00
2023-02-18T16:45:49.593Z,10.90
2023-02-18T16:48:31.793Z,12.70
2023-02-18T16:51:00.428Z,10.90
2023-02-18T16:53:27.088Z,10.80
2023-02-18T16:55:53.659Z,10.80
2023-02-18T16:58:20.326Z,10.80
2023-02-18T17:00:47.236Z,10.80
2023-02-18T17:03:14.137Z,10.80
2023-02-18T17:05:41.146Z,10.70
2023-02-18T17:08:15.315Z,10.70
2023-02-18T17:10:42.063Z,10.70
2023-02-18T17:13:16.179Z,10.70
2023-02-18T17:15:43.571Z,10.60
2023-02-18T17:18:10.451Z,12.90
2023-02-18T17:20:37.362Z,10.70
2023-02-18T17:23:03.982Z,10.70
2023-02-18T17:25:33.488Z,10.70
2023-02-18T17:28:00.949Z,12.20
2023-02-18T17:30:27.791Z,12.00
2023-02-18T17:32:54.426Z,10.70
2023-02-18T17:35:22.834Z,10.70
2023-02-18T17:37:49.813Z,10.60
2023-02-18T17:40:17.429Z,10.60
2023-02-18T17:42:44.068Z,10.60
2023-02-18T17:45:17.570Z,10.60
2023-02-18T17:47:44.354Z,10.60
2023-02-18T17:50:11.075Z,10.60
2023-02-18T17:52:37.777Z,10.60
2023-02-18T17:55:18.455Z,10.60
2023-02-18T17:57:45.284Z,10.50
2023-02-18T18:00:13.458Z,10.60
2023-02-18T18:02:40.064Z,10.50
2023-02-18T18:05:06.866Z,10.50
2023-02-18T18:07:33.526Z,10.50
2023-02-18T18:10:00.087Z,10.30
2023-02-18T18:12:26.962Z,11.50
2023-02-18T18:14:53.510Z,11.20
2023-02-18T18:17:20.094Z,10.70
2023-02-18T18:19:46.737Z,11.70
2023-02-18T18:22:13.404Z,10.70
2023-02-18T18:24:40.069Z,10.70
2023-02-18T18:27:06.685Z,13.50
2023-02-18T18:29:33.470Z,10.70
2023-02-18T18:32:00.182Z,13.30
2023-02-18T18:34:26.846Z,10.70
2023-02-18T18:36:53.485Z,12.20
2023-02-18T18:39:21.055Z,10.60
2023-02-18T18:41:48.591Z,10.60
2023-02-18T18:44:15.239Z,12.10
2023-02-18T18:46:41.964Z,10.70
2023-02-18T18:49:08.541Z,10.70
2023-02-18T18:51:35.245Z,10.60
2023-02-18T18:54:01.906Z,10.70
2023-02-18T18:56:28.686Z,10.70
2023-02-18T18:58:55.433Z,11.40
2023-02-18T19:01:27.667Z,10.70
2023-02-18T19:03:54.469Z,12.20
2023-02-18T19:06:21.384Z,11.80
2023-02-18T19:08:48.109Z,10.70
2023-02-18T19:11:15.291Z,10.60
2023-02-18T19:13:42.229Z,10.60
2023-02-18T19:16:18.009Z,11.30
2023-02-18T19:18:44.652Z,10.50
2023-02-18T19:21:12.426Z,10.50
2023-02-18T19:23:39.169Z,10.50
2023-02-18T19:26:06.466Z,10.40
2023-02-18T19:28:33.140Z,12.40
2023-02-18T19:30:59.862Z,10.40
2023-02-18T19:33:26.735Z,10.40
2023-02-18T19:35:53.382Z,10.30
2023-02-18T19:38:20.689Z,10.40
2023-02-18T19:40:47.780Z,10.20
2023-02-18T19:43:14.689Z,10.20
2023-02-18T19:45:43.004Z,10.20
2023-02-18T19:48:10.521Z,10.30
2023-02-18T19:50:37.147Z,10.10
2023-02-18T19:53:03.710Z,10.10
2023-02-18T19:55:30.267Z,10.00
2023-02-18T19:57:57.010Z,9.90
2023-02-18T20:00:23.610Z,11.40
2023-02-18T20:02:50.610Z,10.00
2023-02-18T20:05:17.641Z,9.80
2023-02-18T20:07:46.618Z,9.80
2023-02-18T20:10:15.555Z,9.70
2023-02-18T20:12:42.269Z,9.70
2023-02-18T20:15:08.992Z,9.70
2023-02-18T20:17:36.836Z,9.60
2023-02-18T20:20:03.571Z,9.60
2023-02-18T20:22:30.187Z,9.60
2023-02-18T20:24:56.802Z,9.70
2023-02-18T20:27:23.435Z,9.70
2023-02-18T20:29:51.386Z,9.50
2023-02-18T20:32:19.109Z,9.50
2023-02-18T20:34:45.844Z,11.10
2023-02-18T20:37:12.503Z,9.50
2023-02-18T20:39:39.111Z,9.50
2023-02-18T20:42:15.780Z,9.50
2023-02-18T20:44:43.705Z,9.40
2023-02-18T20:47:10.365Z,9.40
2023-02-18T20:49:37.057Z,9.40
2023-02-18T20:52:03.780Z,9.30
2023-02-18T20:54:30.592Z,9.30
2023-02-18T20:56:57.202Z,11.70
2023-02-18T20:59:24.042Z,9.30
2023-02-18T21:01:50.670Z,9.30
2023-02-18T21:04:18.400Z,11.40
2023-02-18T21:06:45.628Z,9.30
2023-02-18T21:09:13.086Z,9.40
2023-02-18T21:11:40.109Z,9.30
2023-02-18T21:14:06.971Z,9.40
2023-02-18T21:16:38.514Z,9.30
2023-02-18T21:19:06.253Z,9.30
2023-02-18T21:21:32.903Z,9.40
2023-02-18T21:23:59.512Z,9.40
2023-02-18T21:26:28.735Z,9.40
2023-02-18T21:28:56.520Z,9.40
2023-02-18T21:31:24.842Z,9.40
2023-02-18T21:33:51.633Z,9.90
2023-02-18T21:36:18.336Z,9.40
2023-02-18T21:38:45.464Z,9.40
2023-02-18T21:41:12.524Z,9.60
2023-02-18T21:43:39.178Z,9.40
2023-02-18T21:46:10.209Z,9.40
2023-02-18T21:48:55.359Z,9.50
2023-02-18T21:51:40.668Z,9.80
2023-02-18T21:54:07.410Z,9.40
2023-02-18T21:56:34.016Z,9.40
2023-02-18T21:59:00.727Z,9.40
2023-02-18T22:01:27.833Z,9.40
2023-02-18T22:03:55.266Z,9.40
2023-02-18T22:08:59.279Z,9.40
2023-02-18T22:11:25.969Z,9.40
2023-02-18T22:13:52.661Z,9.30
2023-02-18T22:16:19.443Z,9.30
2023-02-18T22:18:46.218Z,9.40
2023-02-18T22:21:13.087Z,9.40
2023-02-18T22:23:39.855Z,9.40
2023-02-18T22:26:07.705Z,7.90
2023-02-18T22:28:34.442Z,9.40
2023-02-18T22:31:05.720Z,9.40
2023-02-18T22:33:32.380Z,12.10
2023-02-18T22:36:07.417Z,12.70
2023-02-18T22:38:35.630Z,9.50
2023-02-18T22:41:06.574Z,9.50
2023-02-18T22:43:33.426Z,9.40
2023-02-18T22:46:07.255Z,12.40
2023-02-18T22:48:34.827Z,9.50
2023-02-18T22:51:05.622Z,9.40
2023-02-18T22:53:32.535Z,9.40
2023-02-18T22:56:00.102Z,9.40
2023-02-18T22:58:26.945Z,9.40
2023-02-18T23:00:53.637Z,9.40
2023-02-18T23:03:20.312Z,9.40
2023-02-18T23:05:47.520Z,12.80
2023-02-18T23:08:14.290Z,9.40
2023-02-18T23:10:40.906Z,11.10
2023-02-18T23:13:07.676Z,9.40
2023-02-18T23:15:34.339Z,9.30
2023-02-18T23:18:01.086Z,9.40
2023-02-18T23:20:46.610Z,10.30
2023-02-18T23:23:13.256Z,9.30
2023-02-18T23:25:39.896Z,9.30
2023-02-18T23:28:06.671Z,9.30
2023-02-18T23:30:33.426Z,11.80
2023-02-18T23:33:00.229Z,9.20
2023-02-18T23:35:26.923Z,9.20
2023-02-18T23:38:05.796Z,11.80
2023-02-18T23:40:32.765Z,11.30
2023-02-18T23:42:59.681Z,9.20
2023-02-18T23:45:26.407Z,9.20
2023-02-18T23:47:53.197Z,12.30
2023-02-18T23:50:19.937Z,9.30
2023-02-18T23:52:47.366Z,10.80
2023-02-18T23:55:14.029Z,12.50
2023-02-18T23:57:40.706Z,9.30
